createdAt,value
2018-12-18T00:00:10.039Z,-4.57
2018-12-18T00:02:46.551Z,-4.54
2018-12-18T00:05:30.113Z,-4.54
2018-12-18T00:08:00.627Z,-4.52
2018-12-18T00:10:39.251Z,-4.55
2018-12-18T00:13:12.092Z,-4.57
2018-12-18T00:15:45.143Z,-4.52
2018-12-18T00:18:19.092Z,-4.51
2018-12-18T00:20:52.099Z,-4.54
2018-12-18T00:23:27.806Z,-4.53
2018-12-18T00:26:07.335Z,-4.52
2018-12-18T00:28:41.260Z,-4.53
2018-12-18T00:31:18.241Z,-4.51
2018-12-18T00:33:50.932Z,-4.72
2018-12-18T00:36:25.379Z,-4.67
2018-12-18T00:38:58.584Z,-4.62
2018-12-18T00:41:31.859Z,-4.65
2018-12-18T00:44:05.067Z,-4.66
2018-12-18T00:46:42.254Z,-4.56
2018-12-18T00:49:19.233Z,-4.51
2018-12-18T00:51:55.510Z,-4.56
2018-12-18T00:54:28.481Z,-4.52
2018-12-18T00:57:01.063Z,-4.54
2018-12-18T00:59:33.178Z,-4.55
2018-12-18T01:02:11.107Z,-4.54
2018-12-18T01:04:45.754Z,-4.49
2018-12-18T01:07:20.149Z,-4.56
2018-12-18T01:09:57.332Z,-4.51
2018-12-18T01:12:35.170Z,-4.57
2018-12-18T01:15:07.757Z,-4.56
2018-12-18T01:17:40.809Z,-4.65
2018-12-18T01:20:12.838Z,-4.57
2018-12-18T01:22:49.201Z,-4.50
2018-12-18T01:25:21.887Z,-4.56
2018-12-18T01:27:54.709Z,-4.60
2018-12-18T01:30:27.905Z,-4.55
2018-12-18T01:33:01.211Z,-4.60
2018-12-18T01:35:34.163Z,-4.86
2018-12-18T01:38:10.297Z,-4.95
2018-12-18T01:40:43.444Z,-4.86
2018-12-18T01:43:19.576Z,-4.88
2018-12-18T01:45:56.221Z,-4.82
2018-12-18T01:48:28.441Z,-4.74
2018-12-18T01:51:02.119Z,-4.73
2018-12-18T01:53:34.894Z,-4.67
2018-12-18T01:56:07.391Z,-4.64
2018-12-18T01:58:45.191Z,-4.62
2018-12-18T02:01:17.609Z,-4.65
2018-12-18T02:03:57.632Z,-4.60
2018-12-18T02:06:32.021Z,-4.66
2018-12-18T02:09:10.051Z,-4.81
2018-12-18T02:11:43.070Z,-4.77
2018-12-18T02:14:16.014Z,-4.84
2018-12-18T02:16:54.142Z,-4.72
2018-12-18T02:19:30.929Z,-4.79
2018-12-18T02:22:03.684Z,-4.80
2018-12-18T02:24:36.647Z,-4.77
2018-12-18T02:27:10.636Z,-4.84
2018-12-18T02:29:47.696Z,-4.84
2018-12-18T02:32:19.880Z,-4.83
2018-12-18T02:34:53.657Z,-4.88
2018-12-18T02:37:26.965Z,-4.82
2018-12-18T02:39:59.625Z,-4.87
2018-12-18T02:42:37.533Z,-4.85
2018-12-18T02:45:10.394Z,-4.91
2018-12-18T02:47:47.233Z,-4.87
2018-12-18T02:50:24.477Z,-4.87
2018-12-18T02:53:03.040Z,-4.90
2018-12-18T02:55:35.593Z,-4.86
2018-12-18T02:58:08.844Z,-4.94
2018-12-18T03:00:40.977Z,-4.90
2018-12-18T03:03:14.269Z,-4.90
2018-12-18T03:05:47.097Z,-4.91
2018-12-18T03:08:19.291Z,-4.83
2018-12-18T03:10:53.046Z,-4.81
2018-12-18T03:13:29.203Z,-4.82
2018-12-18T03:16:02.635Z,-4.88
2018-12-18T03:18:39.317Z,-4.85
2018-12-18T03:21:17.125Z,-4.94
2018-12-18T03:23:53.344Z,-4.94
2018-12-18T03:26:25.807Z,-4.91
2018-12-18T03:28:58.052Z,-4.96
2018-12-18T03:31:36.134Z,-4.92
2018-12-18T03:34:09.340Z,-4.93
2018-12-18T03:36:41.768Z,-4.92
2018-12-18T03:39:15.081Z,-4.92
2018-12-18T03:41:48.531Z,-4.92
2018-12-18T03:44:21.482Z,-4.92
2018-12-18T03:46:55.242Z,-4.92
2018-12-18T03:49:31.636Z,-4.94
2018-12-18T03:52:04.938Z,-5.01
2018-12-18T03:54:41.992Z,-5.02
2018-12-18T03:57:14.324Z,-5.04
2018-12-18T03:59:50.638Z,-5.11
2018-12-18T04:02:24.880Z,-5.16
2018-12-18T04:05:03.622Z,-5.13
2018-12-18T04:07:34.415Z,-5.22
2018-12-18T04:10:08.147Z,-5.27
2018-12-18T04:12:41.410Z,-5.25
2018-12-18T04:15:27.526Z,-5.20
2018-12-18T04:18:00.672Z,-5.30
2018-12-18T04:20:37.903Z,-5.43
2018-12-18T04:23:13.869Z,-5.42
2018-12-18T04:25:50.237Z,-5.33
2018-12-18T04:28:21.200Z,-5.47
2018-12-18T04:30:57.170Z,-5.60
2018-12-18T04:33:32.011Z,-5.53
2018-12-18T04:36:06.258Z,-5.50
2018-12-18T04:38:47.493Z,-5.48
2018-12-18T04:41:27.613Z,-5.46
2018-12-18T04:44:04.475Z,-5.45
2018-12-18T04:46:41.810Z,-5.42
2018-12-18T04:49:19.094Z,-5.45
2018-12-18T04:51:55.510Z,-5.46
2018-12-18T04:54:32.616Z,-5.52
2018-12-18T04:57:10.269Z,-5.53
2018-12-18T04:59:41.543Z,-5.53
2018-12-18T05:02:15.609Z,-5.62
2018-12-18T05:04:50.510Z,-5.76
2018-12-18T05:07:28.222Z,-5.82
2018-12-18T05:10:07.103Z,-5.94
2018-12-18T05:12:39.811Z,-5.92
2018-12-18T05:15:12.927Z,-5.92
2018-12-18T05:17:46.996Z,-5.87
2018-12-18T05:20:24.113Z,-5.81
2018-12-18T05:23:03.045Z,-5.79
2018-12-18T05:25:40.609Z,-5.68
2018-12-18T05:28:19.429Z,-5.68
2018-12-18T05:30:53.306Z,-5.62
2018-12-18T05:33:25.969Z,-5.59
2018-12-18T05:35:58.988Z,-5.57
2018-12-18T05:38:35.810Z,-5.60
2018-12-18T05:41:13.077Z,-5.70
2018-12-18T05:43:45.429Z,-5.65
2018-12-18T05:46:22.577Z,-5.66
2018-12-18T05:48:54.290Z,-5.66
2018-12-18T05:51:33.924Z,-5.61
2018-12-18T05:54:08.219Z,-5.59
2018-12-18T05:56:41.340Z,-5.67
2018-12-18T05:59:15.023Z,-5.70
2018-12-18T06:01:47.845Z,-5.70
2018-12-18T06:04:21.701Z,-5.79
2018-12-18T06:06:53.909Z,-5.70
2018-12-18T06:09:25.016Z,-5.62
2018-12-18T06:11:59.205Z,-5.63
2018-12-18T06:14:31.512Z,-5.65
2018-12-18T06:17:04.477Z,-5.67
2018-12-18T06:19:36.722Z,-5.69
2018-12-18T06:22:08.952Z,-5.67
2018-12-18T06:24:49.465Z,-5.75
2018-12-18T06:27:23.122Z,-5.91
2018-12-18T06:29:58.340Z,-5.99
2018-12-18T06:32:31.248Z,-5.98
2018-12-18T06:35:11.148Z,-5.79
2018-12-18T06:37:44.393Z,-5.70
2018-12-18T06:40:15.270Z,-5.68
2018-12-18T06:42:51.627Z,-5.65
2018-12-18T06:45:24.200Z,-5.66
2018-12-18T06:47:59.223Z,-5.65
2018-12-18T06:50:36.540Z,-5.67
2018-12-18T06:53:13.548Z,-5.65
2018-12-18T06:55:47.116Z,-5.57
2018-12-18T06:58:19.515Z,-5.62
2018-12-18T07:00:56.546Z,-5.53
2018-12-18T07:03:28.759Z,-5.48
2018-12-18T07:06:06.126Z,-5.56
2018-12-18T07:08:42.777Z,-5.49
2018-12-18T07:11:16.624Z,-5.26
2018-12-18T07:13:49.182Z,-4.98
2018-12-18T07:16:22.255Z,-4.81
2018-12-18T07:18:59.371Z,-4.61
2018-12-18T07:21:36.769Z,-4.46
2018-12-18T07:24:13.996Z,-4.24
2018-12-18T07:26:50.273Z,-4.11
2018-12-18T07:29:23.424Z,-3.70
2018-12-18T07:31:56.683Z,-3.30
2018-12-18T07:34:33.343Z,-3.05
2018-12-18T07:37:05.304Z,-2.86
2018-12-18T07:39:38.031Z,-2.78
2018-12-18T07:42:12.462Z,-2.53
2018-12-18T07:44:46.150Z,-2.76
2018-12-18T07:47:19.368Z,-2.84
2018-12-18T07:49:52.300Z,-2.74
2018-12-18T07:52:28.530Z,-2.67
2018-12-18T07:55:00.799Z,-2.48
2018-12-18T07:57:33.744Z,-2.52
2018-12-18T08:00:06.460Z,-2.14
2018-12-18T08:02:39.531Z,-1.93
2018-12-18T08:05:18.394Z,-1.58
2018-12-18T08:07:54.907Z,-1.15
2018-12-18T08:10:27.902Z,-1.14
2018-12-18T08:13:05.253Z,-1.19
2018-12-18T08:15:37.585Z,-1.26
2018-12-18T08:18:11.807Z,-1.79
2018-12-18T08:20:44.603Z,-1.48
2018-12-18T08:23:17.342Z,-1.01
2018-12-18T08:28:43.191Z,-0.51
2018-12-18T08:31:16.711Z,-0.23
2018-12-18T08:33:49.451Z,-0.11
2018-12-18T08:36:21.821Z,0.24
2018-12-18T08:38:59.248Z,0.03
2018-12-18T08:41:32.565Z,0.26
2018-12-18T08:44:09.379Z,0.59
2018-12-18T08:46:42.473Z,0.81
2018-12-18T08:49:18.883Z,1.11
2018-12-18T08:51:52.578Z,1.34
2018-12-18T08:54:26.017Z,1.67
2018-12-18T08:57:02.985Z,1.34
2018-12-18T08:59:36.880Z,1.33
2018-12-18T09:02:09.860Z,1.90
2018-12-18T09:04:46.052Z,1.93
2018-12-18T09:07:18.776Z,2.20
2018-12-18T09:09:53.870Z,2.47
2018-12-18T09:12:27.390Z,2.77
2018-12-18T09:15:03.717Z,2.73
2018-12-18T09:17:41.286Z,2.55
2018-12-18T09:20:14.484Z,3.15
2018-12-18T09:22:51.709Z,3.53
2018-12-18T09:25:24.406Z,3.77
2018-12-18T09:27:57.584Z,3.80
2018-12-18T09:30:31.961Z,3.65
2018-12-18T09:33:06.455Z,3.76
2018-12-18T09:35:49.529Z,3.97
2018-12-18T09:38:20.909Z,4.22
2018-12-18T09:40:59.743Z,4.47
2018-12-18T09:43:42.708Z,3.87
2018-12-18T09:46:17.362Z,4.48
2018-12-18T09:48:49.876Z,4.38
2018-12-18T09:51:24.576Z,4.60
2018-12-18T09:53:58.836Z,4.65
2018-12-18T09:56:46.022Z,5.19
2018-12-18T09:59:19.748Z,5.24
2018-12-18T10:01:53.538Z,5.60
2018-12-18T10:04:31.850Z,5.65
2018-12-18T10:07:06.114Z,5.27
2018-12-18T10:09:37.110Z,5.69
2018-12-18T10:12:11.096Z,5.68
2018-12-18T10:14:44.061Z,5.63
2018-12-18T10:17:18.240Z,5.78
2018-12-18T10:19:56.436Z,5.79
2018-12-18T10:22:29.157Z,6.18
2018-12-18T10:25:01.941Z,6.07
2018-12-18T10:27:35.781Z,6.20
2018-12-18T10:37:46.986Z,6.14
2018-12-18T10:40:19.338Z,6.41
2018-12-18T10:42:53.495Z,6.82
2018-12-18T10:45:31.872Z,6.85
2018-12-18T10:48:08.819Z,7.01
2018-12-18T10:50:42.045Z,7.39
2018-12-18T10:53:14.762Z,7.06
2018-12-18T10:55:47.984Z,7.60
2018-12-18T10:58:23.978Z,6.88
2018-12-18T11:01:01.717Z,6.29
2018-12-18T11:03:35.193Z,7.00
2018-12-18T11:06:10.091Z,7.15
2018-12-18T11:08:43.137Z,7.27
2018-12-18T11:11:16.120Z,6.71
2018-12-18T11:13:47.001Z,6.28
2018-12-18T11:16:19.488Z,6.75
2018-12-18T11:18:51.703Z,6.57
2018-12-18T11:21:26.305Z,6.75
2018-12-18T11:23:58.768Z,7.13
2018-12-18T11:26:31.858Z,7.02
2018-12-18T11:29:09.259Z,6.66
2018-12-18T11:31:46.808Z,6.73
2018-12-18T11:34:19.526Z,6.53
2018-12-18T11:36:52.967Z,6.14
2018-12-18T11:39:25.509Z,5.52
2018-12-18T11:41:58.681Z,5.23
2018-12-18T11:44:31.637Z,5.50
2018-12-18T11:47:04.049Z,6.09
2018-12-18T11:49:34.962Z,6.27
2018-12-18T11:52:06.107Z,6.93
2018-12-18T11:54:42.966Z,7.28
2018-12-18T11:57:15.648Z,7.58
2018-12-18T11:59:48.680Z,7.27
2018-12-18T12:02:21.825Z,7.54
2018-12-18T12:04:56.235Z,7.51
2018-12-18T12:07:29.044Z,7.51
2018-12-18T12:10:02.155Z,7.34
2018-12-18T12:12:35.429Z,7.57
2018-12-18T12:15:08.569Z,7.60
2018-12-18T12:17:41.824Z,7.40
2018-12-18T12:20:14.646Z,7.53
2018-12-18T12:22:51.770Z,6.75
2018-12-18T12:25:31.676Z,6.69
2018-12-18T12:28:07.318Z,6.65
2018-12-18T12:30:41.142Z,6.54
2018-12-18T12:33:14.116Z,6.39
2018-12-18T12:35:50.215Z,6.45
2018-12-18T12:38:20.536Z,6.75
2018-12-18T12:40:52.754Z,6.85
2018-12-18T12:43:26.504Z,7.30
2018-12-18T12:45:59.078Z,7.62
2018-12-18T12:48:37.337Z,7.82
2018-12-18T12:51:08.230Z,7.77
2018-12-18T12:53:39.480Z,7.43
2018-12-18T12:56:09.620Z,7.46
2018-12-18T12:58:46.382Z,7.23
2018-12-18T13:01:23.737Z,7.05
2018-12-18T13:03:56.125Z,7.14
2018-12-18T13:06:36.195Z,7.10
2018-12-18T13:09:08.700Z,7.58
2018-12-18T13:11:43.348Z,7.28
2018-12-18T13:14:14.394Z,7.47
2018-12-18T13:16:47.226Z,7.52
2018-12-18T13:19:23.557Z,7.64
2018-12-18T13:21:56.902Z,7.56
2018-12-18T13:24:30.047Z,7.67
2018-12-18T13:27:06.235Z,7.78
2018-12-18T13:29:38.065Z,7.23
2018-12-18T13:32:09.194Z,6.98
2018-12-18T13:34:41.692Z,7.74
2018-12-18T13:37:14.698Z,9.18
2018-12-18T13:39:47.717Z,9.63
2018-12-18T13:42:20.768Z,9.59
2018-12-18T13:44:53.356Z,10.02
2018-12-18T13:47:27.331Z,10.15
2018-12-18T13:50:00.680Z,10.32
2018-12-18T13:52:32.874Z,10.28
2018-12-18T13:55:14.081Z,9.71
2018-12-18T13:57:47.525Z,9.31
2018-12-18T14:00:17.986Z,9.07
2018-12-18T14:02:50.455Z,9.22
2018-12-18T14:05:22.312Z,8.51
2018-12-18T14:07:55.469Z,7.47
2018-12-18T14:10:30.651Z,6.87
2018-12-18T14:13:00.940Z,6.06
2018-12-18T14:15:33.990Z,5.43
2018-12-18T14:18:05.328Z,5.52
2018-12-18T14:20:38.871Z,4.69
2018-12-18T14:23:12.021Z,4.33
2018-12-18T14:25:44.837Z,4.40
2018-12-18T14:28:17.611Z,4.28
2018-12-18T14:30:49.864Z,3.88
2018-12-18T14:33:22.790Z,3.59
2018-12-18T14:35:53.179Z,3.39
2018-12-18T14:38:26.224Z,3.37
2018-12-18T14:41:00.031Z,3.04
2018-12-18T14:43:33.250Z,2.82
2018-12-18T14:46:06.306Z,2.63
2018-12-18T14:48:39.295Z,2.50
2018-12-18T14:51:11.593Z,2.56
2018-12-18T14:53:44.708Z,2.34
2018-12-18T14:56:18.413Z,2.17
2018-12-18T14:58:50.836Z,2.10
2018-12-18T15:01:25.017Z,1.96
2018-12-18T15:03:58.993Z,1.85
2018-12-18T15:06:31.716Z,1.72
2018-12-18T15:09:08.956Z,1.79
2018-12-18T15:11:45.465Z,1.75
2018-12-18T15:14:16.267Z,1.57
2018-12-18T15:16:48.624Z,1.42
2018-12-18T15:19:21.598Z,1.30
2018-12-18T15:21:54.752Z,1.30
2018-12-18T15:24:32.787Z,1.28
2018-12-18T15:27:03.099Z,1.22
2018-12-18T15:29:38.025Z,1.10
2018-12-18T15:32:10.457Z,1.05
2018-12-18T15:34:49.173Z,0.99
2018-12-18T15:37:21.557Z,0.87
2018-12-18T15:39:56.259Z,0.73
2018-12-18T15:42:29.012Z,0.65
2018-12-18T15:45:01.823Z,0.51
2018-12-18T15:47:39.221Z,0.42
2018-12-18T15:50:12.195Z,0.34
2018-12-18T15:52:45.305Z,0.33
2018-12-18T15:55:18.598Z,0.30
2018-12-18T15:57:56.318Z,0.28
2018-12-18T16:00:28.714Z,0.26
2018-12-18T16:03:01.641Z,0.16
2018-12-18T16:05:34.759Z,0.12
2018-12-18T16:08:07.675Z,0.01
2018-12-18T16:10:40.216Z,-0.01
2018-12-18T16:13:12.724Z,-0.08
2018-12-18T16:15:45.230Z,-0.07
2018-12-18T16:18:22.489Z,-0.18
2018-12-18T16:20:55.389Z,-0.18
2018-12-18T16:23:31.797Z,-0.21
2018-12-18T16:26:02.890Z,-0.21
2018-12-18T16:28:39.261Z,-0.22
2018-12-18T16:31:12.594Z,-0.31
2018-12-18T16:33:47.608Z,-0.36
2018-12-18T16:36:23.972Z,-0.44
2018-12-18T16:39:00.941Z,-0.61
2018-12-18T16:41:34.317Z,-0.64
2018-12-18T16:44:06.985Z,-0.74
2018-12-18T16:46:41.127Z,-0.89
2018-12-18T16:49:18.178Z,-0.96
2018-12-18T16:51:55.001Z,-1.09
2018-12-18T16:54:27.796Z,-1.18
2018-12-18T16:57:00.786Z,-1.12
2018-12-18T16:59:34.814Z,-1.14
2018-12-18T17:02:06.924Z,-1.13
2018-12-18T17:04:40.369Z,-1.14
2018-12-18T17:07:12.848Z,-1.22
2018-12-18T17:09:45.313Z,-1.20
2018-12-18T17:12:17.636Z,-1.12
2018-12-18T17:14:54.772Z,-0.99
2018-12-18T17:17:27.617Z,-0.83
2018-12-18T17:20:01.300Z,-0.75
2018-12-18T17:22:32.090Z,-0.77
2018-12-18T17:25:05.425Z,-0.74
2018-12-18T17:27:42.922Z,-0.74
2018-12-18T17:30:16.420Z,-0.64
2018-12-18T17:32:52.910Z,-0.64
2018-12-18T17:35:25.466Z,-0.51
2018-12-18T17:37:58.180Z,-0.32
2018-12-18T17:40:31.601Z,-0.27
2018-12-18T17:43:04.577Z,0.12
2018-12-18T17:45:38.661Z,0.15
2018-12-18T17:48:13.454Z,0.13
2018-12-18T17:50:46.025Z,0.18
2018-12-18T17:53:18.975Z,-0.13
2018-12-18T17:55:52.772Z,-0.24
2018-12-18T17:58:25.952Z,-0.52
2018-12-18T18:01:04.439Z,-0.58
2018-12-18T18:03:37.822Z,-0.70
2018-12-18T18:06:11.536Z,-0.80
2018-12-18T18:08:42.588Z,-1.02
2018-12-18T18:11:18.847Z,-1.13
2018-12-18T18:13:55.216Z,-1.18
2018-12-18T18:16:28.266Z,-1.25
2018-12-18T18:19:01.147Z,-1.32
2018-12-18T18:21:33.471Z,-1.41
2018-12-18T18:24:07.881Z,-1.52
2018-12-18T18:26:40.447Z,-1.53
2018-12-18T18:29:12.598Z,-1.62
2018-12-18T18:31:44.894Z,-1.54
2018-12-18T18:34:18.112Z,-1.45
2018-12-18T18:36:55.471Z,-1.51
2018-12-18T18:39:31.689Z,-1.58
2018-12-18T18:42:05.090Z,-1.66
2018-12-18T18:44:38.071Z,-1.63
2018-12-18T18:47:15.727Z,-1.50
2018-12-18T18:49:49.257Z,-1.60
2018-12-18T18:52:22.565Z,-1.57
2018-12-18T18:54:53.699Z,-1.52
2018-12-18T18:57:27.584Z,-1.37
2018-12-18T19:00:01.161Z,-1.50
2018-12-18T19:02:33.506Z,-1.48
2018-12-18T19:05:06.867Z,-1.41
2018-12-18T19:07:39.942Z,-1.43
2018-12-18T19:10:16.924Z,-1.41
2018-12-18T19:12:54.543Z,-1.27
2018-12-18T19:15:28.439Z,-1.12
2018-12-18T19:18:04.798Z,-1.06
2018-12-18T19:20:37.806Z,-0.99
2018-12-18T19:23:14.268Z,-0.92
2018-12-18T19:25:47.517Z,-0.86
2018-12-18T19:28:20.661Z,-0.80
2018-12-18T19:30:53.066Z,-0.70
2018-12-18T19:33:25.816Z,-0.69
2018-12-18T19:36:02.338Z,-0.70
2018-12-18T19:38:35.250Z,-0.69
2018-12-18T19:41:08.384Z,-0.63
2018-12-18T19:43:45.893Z,-0.61
2018-12-18T19:46:19.090Z,-0.57
2018-12-18T19:48:51.402Z,-0.57
2018-12-18T19:51:28.537Z,-0.43
2018-12-18T19:54:00.853Z,-0.43
2018-12-18T19:56:33.265Z,-0.53
2018-12-18T19:59:10.770Z,-0.49
2018-12-18T20:01:40.763Z,-0.41
2018-12-18T20:04:13.027Z,-0.34
2018-12-18T20:06:45.211Z,-0.33
2018-12-18T20:09:17.834Z,-0.25
2018-12-18T20:11:50.670Z,-0.22
2018-12-18T20:14:23.707Z,-0.32
2018-12-18T20:17:00.152Z,-0.27
2018-12-18T20:19:40.389Z,-0.26
2018-12-18T20:22:14.429Z,-0.24
2018-12-18T20:24:47.627Z,-0.24
2018-12-18T20:27:21.991Z,-0.20
2018-12-18T20:29:58.971Z,-0.21
2018-12-18T20:32:32.059Z,-0.21
2018-12-18T20:35:05.194Z,-0.22
2018-12-18T20:37:42.262Z,-0.20
2018-12-18T20:40:15.101Z,-0.13
2018-12-18T20:42:55.307Z,-0.10
2018-12-18T20:45:28.557Z,-0.08
2018-12-18T20:48:00.841Z,-0.01
2018-12-18T20:50:38.166Z,-0.01
2018-12-18T20:53:12.471Z,0.00
2018-12-18T20:55:43.605Z,-0.04
2018-12-18T20:58:17.833Z,-0.02
2018-12-18T21:00:48.919Z,-0.02
2018-12-18T21:03:20.978Z,0.02
2018-12-18T21:05:54.296Z,0.08
2018-12-18T21:08:30.691Z,0.07
2018-12-18T21:11:01.836Z,0.04
2018-12-18T21:13:34.158Z,0.06
2018-12-18T21:16:07.115Z,0.04
2018-12-18T21:18:40.669Z,-0.05
2018-12-18T21:21:15.641Z,-0.03
2018-12-18T21:23:48.341Z,-0.02
2018-12-18T21:26:20.935Z,0.00
2018-12-18T21:28:57.624Z,0.04
2018-12-18T21:31:30.964Z,0.03
2018-12-18T21:34:05.030Z,0.07
2018-12-18T21:36:37.804Z,0.12
2018-12-18T21:39:14.532Z,0.13
2018-12-18T21:41:51.580Z,0.15
2018-12-18T21:44:24.686Z,0.13
2018-12-18T21:46:57.808Z,0.07
2018-12-18T21:49:31.275Z,-0.03
2018-12-18T21:52:08.387Z,0.02
2018-12-18T21:54:41.051Z,0.07
2018-12-18T21:57:14.141Z,0.04
2018-12-18T21:59:51.304Z,0.04
2018-12-18T22:02:24.039Z,0.08
2018-12-18T22:04:56.399Z,0.06
2018-12-18T22:07:28.743Z,0.04
2018-12-18T22:10:02.075Z,0.09
2018-12-18T22:12:34.179Z,0.07
2018-12-18T22:15:11.081Z,0.03
2018-12-18T22:17:44.316Z,-0.02
2018-12-18T22:20:17.254Z,-0.03
2018-12-18T22:22:49.567Z,-0.01
2018-12-18T22:25:25.831Z,-0.05
2018-12-18T22:28:03.161Z,-0.06
2018-12-18T22:30:40.077Z,-0.05
2018-12-18T22:33:13.522Z,-0.09
2018-12-18T22:35:49.764Z,-0.07
2018-12-18T22:38:23.624Z,-0.05
2018-12-18T22:40:56.254Z,0.02
2018-12-18T22:43:27.011Z,0.05
2018-12-18T22:45:59.979Z,0.10
2018-12-18T22:48:32.934Z,0.09
2018-12-18T22:51:05.775Z,0.07
2018-12-18T22:53:38.771Z,0.08
2018-12-18T22:56:16.197Z,-0.05
2018-12-18T22:58:49.235Z,-0.09
2018-12-18T23:01:27.357Z,-0.09
2018-12-18T23:04:05.212Z,-0.04
2018-12-18T23:06:37.804Z,0.05
2018-12-18T23:09:16.112Z,0.02
2018-12-18T23:11:50.559Z,0.01
2018-12-18T23:14:27.020Z,0.03
2018-12-18T23:17:06.163Z,0.03
2018-12-18T23:19:39.155Z,0.03
2018-12-18T23:22:13.154Z,-0.01
2018-12-18T23:24:48.512Z,-0.08
2018-12-18T23:27:23.309Z,-0.07
2018-12-18T23:29:56.495Z,-0.06
2018-12-18T23:32:31.836Z,-0.12
2018-12-18T23:35:03.115Z,-0.18
2018-12-18T23:37:35.900Z,-0.09
2018-12-18T23:40:09.637Z,-0.04
2018-12-18T23:42:42.914Z,-0.05
2018-12-18T23:45:19.922Z,-0.07
2018-12-18T23:47:53.332Z,0.00
2018-12-18T23:50:26.663Z,0.06
2018-12-18T23:52:59.666Z,-0.01
2018-12-18T23:55:32.780Z,0.03
2018-12-18T23:58:04.930Z,0.06
